Time;durP1;ratioP1;P1;durP2;ratioP2;P2;SDS_P1;SDS_P2;PMS_P1;PMS_P2;Temp;Humidity;BMP_temperature;BMP_pressure;BME280_temperature;BME280_humidity;BME280_pressure;Samples;Min_cycle;Max_cycle;Signal;HPM_P1;HPM_P2
2021/12/17 00:05:00;;;;;;;;;;;;;;;;;;5055613;28;20176;-74
2021/12/17 00:07:26;;;;;;;;;;;;;;;;;;5083174;28;19924;-74
2021/12/17 00:09:53;;;;;;;;;;;;;;;;;;5084934;28;19928;-74
2021/12/17 00:12:20;;;;;;;;;;;;;;;;;;5081457;28;20015;-74
2021/12/17 00:14:48;;;;;;;;;;;;;;;;;;5083095;28;19931;-74
2021/12/17 00:17:19;;;;;;;;;;;;;;;;;;5085657;28;19968;-72
2021/12/17 00:20:03;;;;;;;;;;;;;;;;;;5082429;28;19951;-75
2021/12/17 00:50:12;;;;;;;;;;;;;;;;;;5059090;28;19924;-74
2021/12/17 00:52:40;;;;;;;;;;;;;;;;;;5082889;28;20415;-74
2021/12/17 00:55:07;;;;;;;;;;;;;;;;;;5078979;28;20254;-74
2021/12/17 00:57:39;;;;;;;;;;;;;;;;;;5064559;28;19936;-74
2021/12/17 01:00:06;;;;;;;;;;;;;;;;;;5068118;28;19981;-74
2021/12/17 01:02:33;;;;;;;;;;;;;;;;;;5068625;28;19958;-74
2021/12/17 01:05:00;;;;;;;;;;;;;;;;;;5068025;28;19924;-74
2021/12/17 01:07:27;;;;;;;;;;;;;;;;;;5067849;28;20294;-74
2021/12/17 01:09:54;;;;;;;;;;;;;;;;;;5068760;28;20278;-74
2021/12/17 01:12:21;;;;;;;;;;;;;;;;;;5067809;28;19924;-75
2021/12/17 01:14:48;;;;;;;;;;;;;;;;;;5068888;28;19937;-74
2021/12/17 01:17:15;;;;;;;;;;;;;;;;;;5061514;28;19932;-73
2021/12/17 01:20:11;;;;;;;;;;;;;;;;;;5068093;28;20030;-74
2021/12/17 01:22:53;;;;;;;;;;;;;;;;;;5064525;28;19924;-74
2021/12/17 01:25:33;;;;;;;;;;;;;;;;;;5067322;28;20019;-74
2021/12/17 01:36:15;;;;;;;;;;;;;;;;;;5066548;28;19968;-74
2021/12/17 01:41:49;;;;;;;;;;;;;;;;;;5064916;28;19923;-74
2021/12/17 01:44:16;;;;;;;;;;;;;;;;;;5063566;28;20373;-74
2021/12/17 01:46:43;;;;;;;;;;;;;;;;;;5070218;28;19930;-74
2021/12/17 01:49:25;;;;;;;;;;;;;;;;;;5060258;28;19928;-75
2021/12/17 02:00:13;;;;;;;;;;;;;;;;;;5040261;28;19924;-75
2021/12/17 02:02:44;;;;;;;;;;;;;;;;;;5066731;28;20004;-75
2021/12/17 02:05:10;;;;;;;;;;;;;;;;;;5066179;28;20301;-75
2021/12/17 02:07:38;;;;;;;;;;;;;;;;;;5067360;28;21595;-75
2021/12/17 02:10:45;;;;;;;;;;;;;;;;;;5063211;28;19932;-75
2021/12/17 02:30:11;;;;;;;;;;;;;;;;;;5068217;28;19958;-74
2021/12/17 02:32:40;;;;;;;;;;;;;;;;;;5063904;28;19947;-74
2021/12/17 02:35:24;;;;;;;;;;;;;;;;;;5062340;28;19931;-75
2021/12/17 02:37:52;;;;;;;;;;;;;;;;;;5057833;28;19924;-75
2021/12/17 02:45:41;;;;;;;;;;;;;;;;;;5038414;28;19970;-74
2021/12/17 02:48:08;;;;;;;;;;;;;;;;;;5068959;28;19924;-74
2021/12/17 02:50:35;;;;;;;;;;;;;;;;;;5064022;28;19931;-75
2021/12/17 02:53:02;;;;;;;;;;;;;;;;;;5065164;28;20008;-75
2021/12/17 02:55:29;;;;;;;;;;;;;;;;;;5066055;28;19925;-75
2021/12/17 02:57:56;;;;;;;;;;;;;;;;;;5067081;28;19943;-75
2021/12/17 03:00:23;;;;;;;;;;;;;;;;;;5067374;28;20007;-75
2021/12/17 03:02:50;;;;;;;;;;;;;;;;;;5063549;28;19955;-75
2021/12/17 03:05:17;;;;;;;;;;;;;;;;;;5063423;28;20301;-75
2021/12/17 03:07:47;;;;;;;;;;;;;;;;;;5063052;28;20393;-75
2021/12/17 03:10:15;;;;;;;;;;;;;;;;;;5064820;28;19940;-75
2021/12/17 03:12:44;;;;;;;;;;;;;;;;;;5067345;28;20412;-75
2021/12/17 03:15:18;;;;;;;;;;;;;;;;;;5064087;28;19925;-74
2021/12/17 03:23:28;;;;;;;;;;;;;;;;;;5062030;28;19927;-74
2021/12/17 03:25:55;;;;;;;;;;;;;;;;;;5067824;28;19932;-75
2021/12/17 03:28:22;;;;;;;;;;;;;;;;;;5067346;28;20381;-75
2021/12/17 03:30:49;;;;;;;;;;;;;;;;;;5067103;28;19928;-75
2021/12/17 03:33:16;;;;;;;;;;;;;;;;;;5066916;28;20393;-74
2021/12/17 03:35:43;;;;;;;;;;;;;;;;;;5063082;28;19925;-75
2021/12/17 03:38:10;;;;;;;;;;;;;;;;;;5064108;28;19931;-74
2021/12/17 03:40:39;;;;;;;;;;;;;;;;;;5059448;28;19924;-75
2021/12/17 03:43:12;;;;;;;;;;;;;;;;;;5063444;28;19936;-76
2021/12/17 03:45:39;;;;;;;;;;;;;;;;;;5060288;28;19932;-76
2021/12/17 03:48:06;;;;;;;;;;;;;;;;;;5063153;28;20404;-75
2021/12/17 03:50:33;;;;;;;;;;;;;;;;;;5066438;28;20158;-75
2021/12/17 03:53:00;;;;;;;;;;;;;;;;;;5064561;28;20349;-75
2021/12/17 03:55:27;;;;;;;;;;;;;;;;;;5065148;28;19967;-74
2021/12/17 03:57:54;;;;;;;;;;;;;;;;;;5062096;28;19935;-74
2021/12/17 04:00:21;;;;;;;;;;;;;;;;;;5065606;28;19930;-74
2021/12/17 04:02:48;;;;;;;;;;;;;;;;;;5057639;28;19925;-74
2021/12/17 04:05:15;;;;;;;;;;;;;;;;;;5062456;28;20018;-74
2021/12/17 04:07:42;;;;;;;;;;;;;;;;;;5064172;28;20311;-75
2021/12/17 04:10:09;;;;;;;;;;;;;;;;;;5065503;28;20305;-74
2021/12/17 04:12:46;;;;;;;;;;;;;;;;;;5063080;28;20250;-75
2021/12/17 04:15:14;;;;;;;;;;;;;;;;;;5066385;28;19993;-74
2021/12/17 04:17:44;;;;;;;;;;;;;;;;;;5064187;28;19931;-74
2021/12/17 04:20:11;;;;;;;;;;;;;;;;;;5066453;28;19932;-75
2021/12/17 04:22:38;;;;;;;;;;;;;;;;;;5066984;28;20317;-74
2021/12/17 04:25:05;;;;;;;;;;;;;;;;;;5065223;28;19925;-75
2021/12/17 04:27:32;;;;;;;;;;;;;;;;;;5068298;28;19930;-74
2021/12/17 04:29:59;;;;;;;;;;;;;;;;;;5069306;28;20045;-75
2021/12/17 04:32:26;;;;;;;;;;;;;;;;;;5071201;28;19924;-74
2021/12/17 04:34:53;;;;;;;;;;;;;;;;;;5071015;28;20212;-75
2021/12/17 04:37:20;;;;;;;;;;;;;;;;;;5073539;28;19924;-75
2021/12/17 04:39:47;;;;;;;;;;;;;;;;;;5072050;28;19924;-75
2021/12/17 04:42:19;;;;;;;;;;;;;;;;;;5070932;28;19924;-76
2021/12/17 04:44:52;;;;;;;;;;;;;;;;;;5069862;28;20408;-75
2021/12/17 04:58:26;;;;;;;;;;;;;;;;;;5062267;28;20015;-75
2021/12/17 05:00:55;;;;;;;;;;;;;;;;;;5065927;28;19930;-75
2021/12/17 05:03:22;;;;;;;;;;;;;;;;;;5061093;28;19924;-75
2021/12/17 05:05:49;;;;;;;;;;;;;;;;;;5066005;28;20386;-75
2021/12/17 05:08:19;;;;;;;;;;;;;;;;;;5065634;28;20403;-75
2021/12/17 05:11:13;;;;;;;;;;;;;;;;;;5069164;28;20019;-75
2021/12/17 05:19:18;;;;;;;;;;;;;;;;;;5067612;28;19923;-75
2021/12/17 05:21:45;;;;;;;;;;;;;;;;;;5065770;28;20034;-74
2021/12/17 05:24:12;;;;;;;;;;;;;;;;;;5071310;28;19925;-74
2021/12/17 05:26:39;;;;;;;;;;;;;;;;;;5069474;28;19931;-74
2021/12/17 05:29:06;;;;;;;;;;;;;;;;;;5064974;28;20293;-74
2021/12/17 05:31:33;;;;;;;;;;;;;;;;;;5068948;28;19931;-74
2021/12/17 05:33:59;;;;;;;;;;;;;;;;;;5069915;28;19928;-76
2021/12/17 05:36:26;;;;;;;;;;;;;;;;;;5064565;28;19947;-74
2021/12/17 05:38:53;;;;;;;;;;;;;;;;;;5056932;28;19928;-74
2021/12/17 05:41:20;;;;;;;;;;;;;;;;;;5068874;28;19924;-74
2021/12/17 05:43:55;;;;;;;;;;;;;;;;;;5065054;28;19933;-75
2021/12/17 05:46:36;;;;;;;;;;;;;;;;;;5067288;28;20401;-75
2021/12/17 05:49:02;;;;;;;;;;;;;;;;;;5069903;28;19931;-75
2021/12/17 05:51:29;;;;;;;;;;;;;;;;;;5070512;28;20301;-75
2021/12/17 05:53:56;;;;;;;;;;;;;;;;;;5067874;28;19932;-75
2021/12/17 05:56:23;;;;;;;;;;;;;;;;;;5066239;28;19931;-74
2021/12/17 05:58:50;;;;;;;;;;;;;;;;;;5064110;28;20026;-74
2021/12/17 06:01:17;;;;;;;;;;;;;;;;;;5059902;28;20403;-75
2021/12/17 06:03:44;;;;;;;;;;;;;;;;;;5064184;28;20408;-75
2021/12/17 06:06:11;;;;;;;;;;;;;;;;;;5067285;28;19925;-76
2021/12/17 06:08:38;;;;;;;;;;;;;;;;;;5068836;28;19924;-76
2021/12/17 06:11:05;;;;;;;;;;;;;;;;;;5064910;28;19929;-76
2021/12/17 06:13:32;;;;;;;;;;;;;;;;;;5068938;28;19932;-75
2021/12/17 06:15:59;;;;;;;;;;;;;;;;;;5067988;28;19930;-75
2021/12/17 06:18:26;;;;;;;;;;;;;;;;;;5070833;28;19925;-73
2021/12/17 06:20:53;;;;;;;;;;;;;;;;;;5065558;28;19925;-74
2021/12/17 06:23:19;;;;;;;;;;;;;;;;;;5072843;28;19925;-75
2021/12/17 06:25:46;;;;;;;;;;;;;;;;;;5064804;28;19925;-76
2021/12/17 06:28:14;;;;;;;;;;;;;;;;;;5070650;28;19932;-76
2021/12/17 06:30:42;;;;;;;;;;;;;;;;;;5065171;28;19972;-76
2021/12/17 06:33:09;;;;;;;;;;;;;;;;;;5065400;28;19924;-76
2021/12/17 06:35:36;;;;;;;;;;;;;;;;;;5066444;28;19955;-76
2021/12/17 06:38:04;;;;;;;;;;;;;;;;;;5068156;28;19932;-76
2021/12/17 06:40:31;;;;;;;;;;;;;;;;;;5066632;28;19933;-76
2021/12/17 06:42:58;;;;;;;;;;;;;;;;;;5060724;28;20007;-76
2021/12/17 06:45:39;;;;;;;;;;;;;;;;;;5070846;28;19933;-76
2021/12/17 06:48:06;;;;;;;;;;;;;;;;;;5069553;28;19960;-76
2021/12/17 06:59:31;;;;;;;;;;;;;;;;;;5108762;27;19922;-75
2021/12/17 07:10:29;;;;;;;;;;;;;;;;;;5071806;28;20373;-75
2021/12/17 07:21:26;;;;;;;;;;;;;;;;;;5115771;28;20404;-74
2021/12/17 07:32:37;;;;;;;;;;;;;;;;;;5098728;28;19955;-75
2021/12/17 07:40:38;;;;;;;;;;;;;;;;;;5099033;28;19956;-74
2021/12/17 07:43:11;;;;;;;;;;;;;;;;;;5100331;28;20341;-75
2021/12/17 07:45:38;;;;;;;;;;;;;;;;;;5092108;28;19940;-74
2021/12/17 07:48:05;;;;;;;;;;;;;;;;;;5095242;28;19935;-73
2021/12/17 07:50:32;;;;;;;;;;;;;;;;;;5090477;28;19943;-74
2021/12/17 07:52:59;;;;;;;;;;;;;;;;;;5095992;28;20419;-74
2021/12/17 07:55:26;;;;;;;;;;;;;;;;;;5103454;28;20217;-74
2021/12/17 07:57:53;;;;;;;;;;;;;;;;;;5098294;28;20392;-74
2021/12/17 08:00:19;;;;;;;;;;;;;;;;;;5112096;28;19927;-74
2021/12/17 08:02:46;;;;;;;;;;;;;;;;;;5096448;28;20289;-73
2021/12/17 08:05:13;;;;;;;;;;;;;;;;;;5089307;28;19924;-73
2021/12/17 08:07:40;;;;;;;;;;;;;;;;;;5090989;28;20017;-73
2021/12/17 08:10:07;;;;;;;;;;;;;;;;;;5089987;28;20022;-73
2021/12/17 08:12:35;;;;;;;;;;;;;;;;;;5078294;28;19928;-73
2021/12/17 08:15:04;;;;;;;;;;;;;;;;;;5084399;28;19933;-74
2021/12/17 08:17:50;;;;;;;;;;;;;;;;;;5082492;28;19985;-74
2021/12/17 08:26:02;;;;;;;;;;;;;;;;;;5048917;28;20553;-74
2021/12/17 08:28:49;;;;;;;;;;;;;;;;;;5082899;28;20293;-74
2021/12/17 08:31:16;;;;;;;;;;;;;;;;;;5075646;28;19935;-74
2021/12/17 08:33:43;;;;;;;;;;;;;;;;;;5084689;28;19923;-73
2021/12/17 08:36:09;;;;;;;;;;;;;;;;;;5075280;28;19935;-74
2021/12/17 08:38:36;;;;;;;;;;;;;;;;;;5084219;28;20305;-74
2021/12/17 08:41:04;;;;;;;;;;;;;;;;;;5084392;28;19924;-73
2021/12/17 08:43:31;;;;;;;;;;;;;;;;;;5088117;28;19977;-73
2021/12/17 08:45:58;;;;;;;;;;;;;;;;;;5087234;28;19924;-74
2021/12/17 08:48:25;;;;;;;;;;;;;;;;;;5084098;28;20284;-74
2021/12/17 08:50:52;;;;;;;;;;;;;;;;;;5086679;28;19924;-75
2021/12/17 08:53:19;;;;;;;;;;;;;;;;;;5093431;28;19924;-74
2021/12/17 08:55:46;;;;;;;;;;;;;;;;;;5082877;28;19932;-74
2021/12/17 08:58:14;;;;;;;;;;;;;;;;;;5085550;28;19932;-74
2021/12/17 09:00:41;;;;;;;;;;;;;;;;;;5087391;28;19924;-74
2021/12/17 09:03:09;;;;;;;;;;;;;;;;;;5085883;28;20304;-74
2021/12/17 09:05:37;;;;;;;;;;;;;;;;;;5085222;28;19967;-74
2021/12/17 09:08:04;;;;;;;;;;;;;;;;;;5075018;28;19981;-74
2021/12/17 09:10:31;;;;;;;;;;;;;;;;;;5078290;28;19931;-73
2021/12/17 09:12:58;;;;;;;;;;;;;;;;;;5082157;28;19923;-74
2021/12/17 09:15:25;;;;;;;;;;;;;;;;;;5079358;28;19925;-74
2021/12/17 09:17:52;;;;;;;;;;;;;;;;;;5081262;28;19936;-73
2021/12/17 09:20:19;;;;;;;;;;;;;;;;;;5084884;28;19924;-75
2021/12/17 09:22:46;;;;;;;;;;;;;;;;;;5084843;28;19940;-74
2021/12/17 09:25:14;;;;;;;;;;;;;;;;;;5078042;28;19924;-75
2021/12/17 09:27:41;;;;;;;;;;;;;;;;;;5087844;28;20202;-73
2021/12/17 09:30:08;;;;;;;;;;;;;;;;;;5092703;28;19924;-75
2021/12/17 09:32:35;;;;;;;;;;;;;;;;;;5096435;28;20300;-73
2021/12/17 09:35:02;;;;;;;;;;;;;;;;;;5087039;28;19936;-74
2021/12/17 09:37:29;;;;;;;;;;;;;;;;;;5074546;28;19939;-74
2021/12/17 09:39:56;;;;;;;;;;;;;;;;;;5074029;28;20642;-74
2021/12/17 09:42:23;;;;;;;;;;;;;;;;;;5084873;28;19924;-74
2021/12/17 09:44:49;;;;;;;;;;;;;;;;;;5083493;28;19939;-74
2021/12/17 09:47:16;;;;;;;;;;;;;;;;;;5083257;28;20321;-74
2021/12/17 09:49:43;;;;;;;;;;;;;;;;;;5087281;28;20353;-75
2021/12/17 09:52:10;;;;;;;;;;;;;;;;;;5087103;28;19928;-74
2021/12/17 09:54:37;;;;;;;;;;;;;;;;;;5081513;28;19924;-73
2021/12/17 09:57:04;;;;;;;;;;;;;;;;;;5077434;28;20011;-74
2021/12/17 09:59:31;;;;;;;;;;;;;;;;;;5085357;28;20035;-75
2021/12/17 10:01:58;;;;;;;;;;;;;;;;;;5086455;28;19929;-74
2021/12/17 10:04:25;;;;;;;;;;;;;;;;;;5078431;28;19938;-75
2021/12/17 10:06:52;;;;;;;;;;;;;;;;;;5077552;28;19979;-74
2021/12/17 10:09:19;;;;;;;;;;;;;;;;;;5077331;28;19978;-74
2021/12/17 10:11:46;;;;;;;;;;;;;;;;;;5084536;28;19931;-74
2021/12/17 10:14:13;;;;;;;;;;;;;;;;;;5084922;28;19924;-75
2021/12/17 10:16:40;;;;;;;;;;;;;;;;;;5082440;28;19928;-75
2021/12/17 10:19:06;;;;;;;;;;;;;;;;;;5082524;28;19924;-74
2021/12/17 10:21:38;;;;;;;;;;;;;;;;;;5085278;28;19935;-74
2021/12/17 10:24:05;;;;;;;;;;;;;;;;;;5087796;28;20015;-73
2021/12/17 10:26:32;;;;;;;;;;;;;;;;;;5080583;28;19924;-74
2021/12/17 10:28:59;;;;;;;;;;;;;;;;;;5076653;28;19939;-73
2021/12/17 10:31:26;;;;;;;;;;;;;;;;;;5079629;28;19924;-74
2021/12/17 10:33:52;;;;;;;;;;;;;;;;;;5088444;28;20305;-75
2021/12/17 10:36:19;;;;;;;;;;;;;;;;;;5080142;28;20032;-74
2021/12/17 10:38:46;;;;;;;;;;;;;;;;;;5088154;28;19963;-75
2021/12/17 10:41:15;;;;;;;;;;;;;;;;;;5091939;28;19924;-74
2021/12/17 10:43:45;;;;;;;;;;;;;;;;;;5091355;28;19924;-75
2021/12/17 10:46:21;;;;;;;;;;;;;;;;;;5081735;28;19924;-75
2021/12/17 10:48:52;;;;;;;;;;;;;;;;;;5083468;28;19924;-74
2021/12/17 10:51:22;;;;;;;;;;;;;;;;;;5085530;28;19949;-74
2021/12/17 10:53:53;;;;;;;;;;;;;;;;;;5085477;28;19924;-75
2021/12/17 10:56:20;;;;;;;;;;;;;;;;;;5078672;28;19982;-74
2021/12/17 10:58:47;;;;;;;;;;;;;;;;;;5089597;28;19946;-75
2021/12/17 11:01:14;;;;;;;;;;;;;;;;;;5080762;28;20415;-75
2021/12/17 11:03:41;;;;;;;;;;;;;;;;;;5085898;28;20037;-75
2021/12/17 11:06:08;;;;;;;;;;;;;;;;;;5080750;28;19932;-75
2021/12/17 11:08:37;;;;;;;;;;;;;;;;;;5088057;28;20381;-75
2021/12/17 11:11:09;;;;;;;;;;;;;;;;;;5077745;28;19924;-75
2021/12/17 11:13:36;;;;;;;;;;;;;;;;;;5086019;28;19935;-75
2021/12/17 11:16:03;;;;;;;;;;;;;;;;;;5087723;28;19924;-75
2021/12/17 11:18:30;;;;;;;;;;;;;;;;;;5080565;28;20021;-75
2021/12/17 11:20:56;;;;;;;;;;;;;;;;;;5081408;28;19946;-75
2021/12/17 11:23:23;;;;;;;;;;;;;;;;;;5083749;28;20381;-73
2021/12/17 11:25:53;;;;;;;;;;;;;;;;;;5077015;28;19928;-75
2021/12/17 11:28:20;;;;;;;;;;;;;;;;;;5088823;28;19924;-76
2021/12/17 11:30:47;;;;;;;;;;;;;;;;;;5082181;28;19924;-76
2021/12/17 11:33:14;;;;;;;;;;;;;;;;;;5077814;28;20605;-74
2021/12/17 11:35:42;;;;;;;;;;;;;;;;;;5087851;28;19975;-75
2021/12/17 11:38:09;;;;;;;;;;;;;;;;;;5080786;28;19970;-74
2021/12/17 11:40:36;;;;;;;;;;;;;;;;;;5086822;28;19924;-74
2021/12/17 11:43:05;;;;;;;;;;;;;;;;;;5088282;28;19930;-74
2021/12/17 11:45:34;;;;;;;;;;;;;;;;;;5090612;28;19924;-75
2021/12/17 11:48:00;;;;;;;;;;;;;;;;;;5088724;28;19977;-73
2021/12/17 11:50:27;;;;;;;;;;;;;;;;;;5091298;28;19930;-73
2021/12/17 11:52:54;;;;;;;;;;;;;;;;;;5087110;28;19928;-72
2021/12/17 11:55:21;;;;;;;;;;;;;;;;;;5089131;28;19933;-73
2021/12/17 11:57:48;;;;;;;;;;;;;;;;;;5080805;28;19930;-73
2021/12/17 12:00:15;;;;;;;;;;;;;;;;;;5087867;28;19959;-73
2021/12/17 12:02:42;;;;;;;;;;;;;;;;;;5087423;28;19930;-73
2021/12/17 12:05:09;;;;;;;;;;;;;;;;;;5081579;28;20404;-74
2021/12/17 12:07:37;;;;;;;;;;;;;;;;;;5077834;28;20297;-75
2021/12/17 12:10:04;;;;;;;;;;;;;;;;;;5081730;28;19927;-74
2021/12/17 12:12:30;;;;;;;;;;;;;;;;;;5083286;28;19925;-73
2021/12/17 12:14:57;;;;;;;;;;;;;;;;;;5081083;28;19924;-73
2021/12/17 12:17:24;;;;;;;;;;;;;;;;;;5080349;28;19935;-74
2021/12/17 12:19:51;;;;;;;;;;;;;;;;;;5073525;28;19928;-74
2021/12/17 12:22:18;;;;;;;;;;;;;;;;;;5077800;28;19932;-72
2021/12/17 12:24:47;;;;;;;;;;;;;;;;;;5083447;28;19924;-75
2021/12/17 12:27:14;;;;;;;;;;;;;;;;;;5081741;28;19928;-74
2021/12/17 12:29:41;;;;;;;;;;;;;;;;;;5082728;28;19927;-74
2021/12/17 12:32:08;;;;;;;;;;;;;;;;;;5076296;28;19924;-73
2021/12/17 12:34:35;;;;;;;;;;;;;;;;;;5084367;28;20293;-68
2021/12/17 12:37:03;;;;;;;;;;;;;;;;;;5085331;28;19938;-67
2021/12/17 12:39:30;;;;;;;;;;;;;;;;;;5080255;28;19924;-68
2021/12/17 12:41:57;;;;;;;;;;;;;;;;;;5080643;28;19924;-69
2021/12/17 12:44:24;;;;;;;;;;;;;;;;;;5083591;28;19924;-68
2021/12/17 12:46:51;;;;;;;;;;;;;;;;;;5081834;28;19928;-70
2021/12/17 12:49:18;;;;;;;;;;;;;;;;;;5080581;28;20002;-71
2021/12/17 12:51:45;;;;;;;;;;;;;;;;;;5079614;28;19924;-71
2021/12/17 12:54:13;;;;;;;;;;;;;;;;;;5081376;28;20404;-71
2021/12/17 12:56:40;;;;;;;;;;;;;;;;;;5083381;28;20238;-69
2021/12/17 12:59:07;;;;;;;;;;;;;;;;;;5082515;28;19930;-67
2021/12/17 13:01:34;;;;;;;;;;;;;;;;;;5080452;28;20373;-68
2021/12/17 13:04:01;;;;;;;;;;;;;;;;;;5078725;28;19932;-69
2021/12/17 13:06:28;;;;;;;;;;;;;;;;;;5076741;28;20007;-67
2021/12/17 13:08:55;;;;;;;;;;;;;;;;;;5077213;28;19932;-67
2021/12/17 13:11:22;;;;;;;;;;;;;;;;;;5079256;28;19924;-75
2021/12/17 13:13:53;;;;;;;;;;;;;;;;;;5077092;28;19932;-75
2021/12/17 13:16:22;;;;;;;;;;;;;;;;;;5075754;28;20425;-74
2021/12/17 13:21:46;;;;;;;;;;;;;;;;;;5074293;28;19919;-77
2021/12/17 13:24:14;;;;;;;;;;;;;;;;;;5079980;28;19929;-75
2021/12/17 13:26:41;;;;;;;;;;;;;;;;;;5087967;28;19989;-75
2021/12/17 13:29:11;;;;;;;;;;;;;;;;;;5082061;28;19930;-77
2021/12/17 13:31:38;;;;;;;;;;;;;;;;;;5082754;28;19924;-78
2021/12/17 13:34:05;;;;;;;;;;;;;;;;;;5079291;28;19924;-75
2021/12/17 13:36:32;;;;;;;;;;;;;;;;;;5085104;28;19929;-78
2021/12/17 13:38:59;;;;;;;;;;;;;;;;;;5080998;28;19928;-75
2021/12/17 13:41:26;;;;;;;;;;;;;;;;;;5079271;28;19924;-74
2021/12/17 13:43:55;;;;;;;;;;;;;;;;;;5071427;28;20078;-77
2021/12/17 13:46:21;;;;;;;;;;;;;;;;;;5070735;28;20021;-76
2021/12/17 13:48:48;;;;;;;;;;;;;;;;;;5075907;28;19925;-77
2021/12/17 13:51:15;;;;;;;;;;;;;;;;;;5080442;28;19924;-76
2021/12/17 13:53:42;;;;;;;;;;;;;;;;;;5081975;28;20379;-78
2021/12/17 13:56:09;;;;;;;;;;;;;;;;;;5085012;28;19947;-76
2021/12/17 13:58:37;;;;;;;;;;;;;;;;;;5081560;28;19924;-78
2021/12/17 14:01:05;;;;;;;;;;;;;;;;;;5087941;28;19924;-78
2021/12/17 14:03:34;;;;;;;;;;;;;;;;;;5073524;28;19970;-77
2021/12/17 14:06:10;;;;;;;;;;;;;;;;;;5076651;28;19924;-77
2021/12/17 14:08:37;;;;;;;;;;;;;;;;;;5079374;28;20389;-76
2021/12/17 14:11:04;;;;;;;;;;;;;;;;;;5093908;28;19924;-77
2021/12/17 14:13:31;;;;;;;;;;;;;;;;;;5082565;28;20385;-77
2021/12/17 14:15:59;;;;;;;;;;;;;;;;;;5085629;28;20387;-76
2021/12/17 14:18:25;;;;;;;;;;;;;;;;;;5079845;28;20476;-76
2021/12/17 14:20:52;;;;;;;;;;;;;;;;;;5089290;28;19940;-76
2021/12/17 14:23:19;;;;;;;;;;;;;;;;;;5083274;28;19924;-77
2021/12/17 14:25:47;;;;;;;;;;;;;;;;;;5082397;28;19924;-76
2021/12/17 14:28:14;;;;;;;;;;;;;;;;;;5079132;28;20007;-77
2021/12/17 14:30:41;;;;;;;;;;;;;;;;;;5089628;28;19950;-77
2021/12/17 14:33:08;;;;;;;;;;;;;;;;;;5094413;28;19934;-77
2021/12/17 14:35:35;;;;;;;;;;;;;;;;;;5088370;28;19930;-77
2021/12/17 14:38:02;;;;;;;;;;;;;;;;;;5086885;28;19924;-76
2021/12/17 14:40:33;;;;;;;;;;;;;;;;;;5087910;28;19924;-76
2021/12/17 14:43:00;;;;;;;;;;;;;;;;;;5084105;28;19932;-77
2021/12/17 14:45:27;;;;;;;;;;;;;;;;;;5080954;28;19924;-77
2021/12/17 14:47:58;;;;;;;;;;;;;;;;;;5085348;28;20003;-76
2021/12/17 15:01:50;;;;;;;;;;;;;;;;;;5080941;28;19920;-76
2021/12/17 15:04:17;;;;;;;;;;;;;;;;;;5085869;28;20430;-76
2021/12/17 15:06:44;;;;;;;;;;;;;;;;;;5075040;28;19934;-69
2021/12/17 15:09:11;;;;;;;;;;;;;;;;;;5074583;28;19924;-68
2021/12/17 15:11:42;;;;;;;;;;;;;;;;;;5071480;28;19925;-68
2021/12/17 15:14:09;;;;;;;;;;;;;;;;;;5074628;28;19929;-68
2021/12/17 15:16:36;;;;;;;;;;;;;;;;;;5085373;28;19946;-69
2021/12/17 15:19:02;;;;;;;;;;;;;;;;;;5078871;28;20159;-68
2021/12/17 15:21:29;;;;;;;;;;;;;;;;;;5079546;28;20282;-69
2021/12/17 15:23:56;;;;;;;;;;;;;;;;;;5077736;28;20020;-69
2021/12/17 15:26:23;;;;;;;;;;;;;;;;;;5082013;28;19928;-69
2021/12/17 15:28:50;;;;;;;;;;;;;;;;;;5084165;28;20320;-69
2021/12/17 15:31:17;;;;;;;;;;;;;;;;;;5079984;28;19925;-69
2021/12/17 15:33:44;;;;;;;;;;;;;;;;;;5083541;28;19931;-69
2021/12/17 15:36:11;;;;;;;;;;;;;;;;;;5080069;28;19936;-69
2021/12/17 15:38:38;;;;;;;;;;;;;;;;;;5084358;28;19931;-68
2021/12/17 15:41:05;;;;;;;;;;;;;;;;;;5087289;28;20234;-69
2021/12/17 15:43:32;;;;;;;;;;;;;;;;;;5082382;28;19927;-69
2021/12/17 15:45:59;;;;;;;;;;;;;;;;;;5071467;28;19925;-70
2021/12/17 15:48:26;;;;;;;;;;;;;;;;;;5082634;28;19924;-68
2021/12/17 15:50:53;;;;;;;;;;;;;;;;;;5078866;28;20031;-68
2021/12/17 15:53:20;;;;;;;;;;;;;;;;;;5083050;28;19924;-69
2021/12/17 15:55:47;;;;;;;;;;;;;;;;;;5079805;28;20025;-69
2021/12/17 15:58:14;;;;;;;;;;;;;;;;;;5080283;28;20309;-69
2021/12/17 16:00:41;;;;;;;;;;;;;;;;;;5086495;28;20294;-68
2021/12/17 16:03:08;;;;;;;;;;;;;;;;;;5085000;28;20296;-69
2021/12/17 16:05:35;;;;;;;;;;;;;;;;;;5080401;28;19931;-69
2021/12/17 16:08:04;;;;;;;;;;;;;;;;;;5082825;28;19928;-69
2021/12/17 16:18:54;;;;;;;;;;;;;;;;;;5083549;28;19935;-70
2021/12/17 16:21:20;;;;;;;;;;;;;;;;;;5081148;28;20009;-69
2021/12/17 16:23:47;;;;;;;;;;;;;;;;;;5079741;28;19959;-69
2021/12/17 16:26:14;;;;;;;;;;;;;;;;;;5076240;28;19955;-69
2021/12/17 16:28:45;;;;;;;;;;;;;;;;;;5081503;28;20293;-69
2021/12/17 16:31:11;;;;;;;;;;;;;;;;;;5081045;28;20018;-69
2021/12/17 16:33:38;;;;;;;;;;;;;;;;;;5085743;28;19947;-67
2021/12/17 16:36:05;;;;;;;;;;;;;;;;;;5086006;28;20022;-68
2021/12/17 16:38:32;;;;;;;;;;;;;;;;;;5083288;28;19931;-68
2021/12/17 16:40:59;;;;;;;;;;;;;;;;;;5078745;28;20386;-68
2021/12/17 16:43:26;;;;;;;;;;;;;;;;;;5078563;28;19929;-68
2021/12/17 16:46:05;;;;;;;;;;;;;;;;;;5087412;28;19935;-68
2021/12/17 16:48:32;;;;;;;;;;;;;;;;;;5081762;28;19928;-68
2021/12/17 16:50:59;;;;;;;;;;;;;;;;;;5079348;28;19939;-68
2021/12/17 16:53:26;;;;;;;;;;;;;;;;;;5083115;28;19932;-68
2021/12/17 16:55:53;;;;;;;;;;;;;;;;;;5085251;28;20268;-69
2021/12/17 16:58:20;;;;;;;;;;;;;;;;;;5083823;28;19931;-68
2021/12/17 17:00:47;;;;;;;;;;;;;;;;;;5087166;28;19925;-68
2021/12/17 17:03:14;;;;;;;;;;;;;;;;;;5078796;28;20012;-69
2021/12/17 17:05:41;;;;;;;;;;;;;;;;;;5083709;28;19928;-69
2021/12/17 17:08:09;;;;;;;;;;;;;;;;;;5080367;28;19939;-69
2021/12/17 17:10:36;;;;;;;;;;;;;;;;;;5079011;28;19924;-68
2021/12/17 17:13:03;;;;;;;;;;;;;;;;;;5078359;28;19931;-68
2021/12/17 17:15:33;;;;;;;;;;;;;;;;;;5082830;28;19942;-68
2021/12/17 17:18:00;;;;;;;;;;;;;;;;;;5075975;28;20064;-67
2021/12/17 17:20:29;;;;;;;;;;;;;;;;;;5078786;28;19924;-68
2021/12/17 17:22:56;;;;;;;;;;;;;;;;;;5077267;28;19924;-68
2021/12/17 17:25:23;;;;;;;;;;;;;;;;;;5079157;28;20385;-67
2021/12/17 17:27:50;;;;;;;;;;;;;;;;;;5081849;28;19931;-67
2021/12/17 17:30:17;;;;;;;;;;;;;;;;;;5073760;28;20393;-68
2021/12/17 17:32:45;;;;;;;;;;;;;;;;;;5084462;28;19928;-68
2021/12/17 17:35:12;;;;;;;;;;;;;;;;;;5079931;28;19930;-68
2021/12/17 17:37:39;;;;;;;;;;;;;;;;;;5084097;28;20380;-68
2021/12/17 17:40:06;;;;;;;;;;;;;;;;;;5079796;28;19947;-68
2021/12/17 17:42:33;;;;;;;;;;;;;;;;;;5078070;28;19935;-66
2021/12/17 17:45:00;;;;;;;;;;;;;;;;;;5077400;28;20423;-68
2021/12/17 17:47:27;;;;;;;;;;;;;;;;;;5078055;28;21452;-67
2021/12/17 17:49:54;;;;;;;;;;;;;;;;;;5077990;28;20399;-67
2021/12/17 17:52:21;;;;;;;;;;;;;;;;;;5075454;28;19924;-67
2021/12/17 17:54:48;;;;;;;;;;;;;;;;;;5077252;28;19928;-68
2021/12/17 17:57:15;;;;;;;;;;;;;;;;;;5077632;28;20019;-68
2021/12/17 17:59:46;;;;;;;;;;;;;;;;;;5077963;28;19928;-67
2021/12/17 18:02:13;;;;;;;;;;;;;;;;;;5070859;28;19924;-67
2021/12/17 18:04:40;;;;;;;;;;;;;;;;;;5078930;28;19924;-68
2021/12/17 18:07:10;;;;;;;;;;;;;;;;;;5086382;28;19942;-68
2021/12/17 18:09:37;;;;;;;;;;;;;;;;;;5077318;28;19924;-69
2021/12/17 18:12:04;;;;;;;;;;;;;;;;;;5074402;28;20021;-68
2021/12/17 18:14:31;;;;;;;;;;;;;;;;;;5080027;28;19939;-68
2021/12/17 18:16:58;;;;;;;;;;;;;;;;;;5078030;28;19924;-68
2021/12/17 18:19:25;;;;;;;;;;;;;;;;;;5077865;28;20404;-68
2021/12/17 18:21:52;;;;;;;;;;;;;;;;;;5079104;28;19978;-69
2021/12/17 18:24:19;;;;;;;;;;;;;;;;;;5076663;28;19927;-69
2021/12/17 18:26:46;;;;;;;;;;;;;;;;;;5073278;28;19971;-69
2021/12/17 18:29:13;;;;;;;;;;;;;;;;;;5079143;28;19928;-68
2021/12/17 18:31:40;;;;;;;;;;;;;;;;;;5078702;28;20401;-68
2021/12/17 18:34:07;;;;;;;;;;;;;;;;;;5077410;28;20011;-67
2021/12/17 18:36:34;;;;;;;;;;;;;;;;;;5080929;28;19925;-68
2021/12/17 18:39:01;;;;;;;;;;;;;;;;;;5082893;28;19936;-68
2021/12/17 18:41:31;;;;;;;;;;;;;;;;;;5080483;28;20405;-68
2021/12/17 18:44:08;;;;;;;;;;;;;;;;;;5077717;28;19925;-69
2021/12/17 18:46:35;;;;;;;;;;;;;;;;;;5079667;28;19966;-68
2021/12/17 18:49:02;;;;;;;;;;;;;;;;;;5082880;28;19935;-68
2021/12/17 18:51:29;;;;;;;;;;;;;;;;;;5080595;28;20296;-69
2021/12/17 18:53:56;;;;;;;;;;;;;;;;;;5078679;28;19930;-70
2021/12/17 18:56:26;;;;;;;;;;;;;;;;;;5080421;28;19931;-67
2021/12/17 18:58:53;;;;;;;;;;;;;;;;;;5078976;28;19975;-68
2021/12/17 19:01:20;;;;;;;;;;;;;;;;;;5079666;28;20011;-69
2021/12/17 19:03:47;;;;;;;;;;;;;;;;;;5081977;28;19929;-68
2021/12/17 19:06:14;;;;;;;;;;;;;;;;;;5077609;28;20023;-68
2021/12/17 19:08:41;;;;;;;;;;;;;;;;;;5078420;28;19925;-69
2021/12/17 19:11:07;;;;;;;;;;;;;;;;;;5076765;28;19937;-69
2021/12/17 19:13:36;;;;;;;;;;;;;;;;;;5081603;28;19950;-70
2021/12/17 19:16:04;;;;;;;;;;;;;;;;;;5079455;28;19932;-71
2021/12/17 19:18:37;;;;;;;;;;;;;;;;;;5079927;28;19932;-69
2021/12/17 19:21:16;;;;;;;;;;;;;;;;;;5072619;28;19935;-69
2021/12/17 19:23:43;;;;;;;;;;;;;;;;;;5075585;28;19936;-69
2021/12/17 19:26:10;;;;;;;;;;;;;;;;;;5081336;28;19924;-69
2021/12/17 19:28:37;;;;;;;;;;;;;;;;;;5084131;28;20015;-68
2021/12/17 19:31:04;;;;;;;;;;;;;;;;;;5075943;28;20289;-68
2021/12/17 19:33:31;;;;;;;;;;;;;;;;;;5079180;28;19931;-69
2021/12/17 19:35:58;;;;;;;;;;;;;;;;;;5082954;28;20019;-69